sensor_id;sensor_type;location;lat;lon;timestamp;P1;durP1;ratioP1;P2;durP2;ratioP2
31386;SDS011;18017;50.124;8.688;2022-11-21T00:00:45;6.70;;;0.68;;
31386;SDS011;18017;50.124;8.688;2022-11-21T00:03:13;3.42;;;0.40;;
31386;SDS011;18017;50.124;8.688;2022-11-21T00:05:39;3.08;;;0.50;;
31386;SDS011;18017;50.124;8.688;2022-11-21T00:08:06;4.30;;;0.30;;
31386;SDS011;18017;50.124;8.688;2022-11-21T00:10:33;3.50;;;0.70;;
31386;SDS011;18017;50.124;8.688;2022-11-21T00:13:00;3.95;;;0.40;;
31386;SDS011;18017;50.124;8.688;2022-11-21T00:15:25;4.57;;;0.30;;
31386;SDS011;18017;50.124;8.688;2022-11-21T00:17:51;8.90;;;0.45;;
31386;SDS011;18017;50.124;8.688;2022-11-21T00:20:17;2.20;;;0.30;;
31386;SDS011;18017;50.124;8.688;2022-11-21T00:22:44;3.42;;;0.30;;
31386;SDS011;18017;50.124;8.688;2022-11-21T00:25:10;3.33;;;0.20;;
31386;SDS011;18017;50.124;8.688;2022-11-21T00:27:35;2.17;;;0.32;;
31386;SDS011;18017;50.124;8.688;2022-11-21T00:30:01;2.67;;;0.30;;
31386;SDS011;18017;50.124;8.688;2022-11-21T00:32:27;3.83;;;0.35;;
31386;SDS011;18017;50.124;8.688;2022-11-21T00:34:52;1.85;;;0.20;;
31386;SDS011;18017;50.124;8.688;2022-11-21T00:37:18;2.90;;;0.38;;
31386;SDS011;18017;50.124;8.688;2022-11-21T00:39:43;3.25;;;0.47;;
31386;SDS011;18017;50.124;8.688;2022-11-21T00:42:09;1.75;;;0.20;;
31386;SDS011;18017;50.124;8.688;2022-11-21T00:44:34;5.65;;;0.25;;
31386;SDS011;18017;50.124;8.688;2022-11-21T00:47:00;3.58;;;0.17;;
31386;SDS011;18017;50.124;8.688;2022-11-21T00:49:26;1.85;;;0.10;;
31386;SDS011;18017;50.124;8.688;2022-11-21T00:51:52;1.67;;;0.10;;
31386;SDS011;18017;50.124;8.688;2022-11-21T00:54:18;0.22;;;0.00;;
31386;SDS011;18017;50.124;8.688;2022-11-21T00:56:43;2.58;;;0.10;;
31386;SDS011;18017;50.124;8.688;2022-11-21T00:59:09;2.15;;;0.28;;
31386;SDS011;18017;50.124;8.688;2022-11-21T01:01:35;1.15;;;0.15;;
31386;SDS011;18017;50.124;8.688;2022-11-21T01:04:00;0.25;;;0.10;;
31386;SDS011;18017;50.124;8.688;2022-11-21T01:06:26;1.67;;;0.20;;
31386;SDS011;18017;50.124;8.688;2022-11-21T01:08:52;1.95;;;0.20;;
31386;SDS011;18017;50.124;8.688;2022-11-21T01:11:18;2.65;;;0.30;;
31386;SDS011;18017;50.124;8.688;2022-11-21T01:13:45;3.92;;;0.10;;
31386;SDS011;18017;50.124;8.688;2022-11-21T01:16:13;2.67;;;0.20;;
31386;SDS011;18017;50.124;8.688;2022-11-21T01:18:43;2.20;;;0.20;;
31386;SDS011;18017;50.124;8.688;2022-11-21T01:21:16;6.72;;;0.30;;
31386;SDS011;18017;50.124;8.688;2022-11-21T01:23:43;1.42;;;0.22;;
31386;SDS011;18017;50.124;8.688;2022-11-21T01:26:10;1.38;;;0.28;;
31386;SDS011;18017;50.124;8.688;2022-11-21T01:28:37;7.22;;;0.40;;
31386;SDS011;18017;50.124;8.688;2022-11-21T01:31:04;3.60;;;0.30;;
31386;SDS011;18017;50.124;8.688;2022-11-21T01:33:30;4.72;;;0.30;;
31386;SDS011;18017;50.124;8.688;2022-11-21T01:35:56;4.22;;;0.40;;
31386;SDS011;18017;50.124;8.688;2022-11-21T01:38:22;0.40;;;0.17;;
31386;SDS011;18017;50.124;8.688;2022-11-21T01:40:47;6.68;;;0.30;;
31386;SDS011;18017;50.124;8.688;2022-11-21T01:43:13;2.38;;;0.38;;
31386;SDS011;18017;50.124;8.688;2022-11-21T01:48:14;2.60;;;0.50;;
31386;SDS011;18017;50.124;8.688;2022-11-21T01:50:40;6.68;;;0.50;;
31386;SDS011;18017;50.124;8.688;2022-11-21T01:53:05;7.43;;;0.45;;
31386;SDS011;18017;50.124;8.688;2022-11-21T01:55:31;8.40;;;0.60;;
31386;SDS011;18017;50.124;8.688;2022-11-21T01:57:57;5.28;;;0.60;;
31386;SDS011;18017;50.124;8.688;2022-11-21T02:00:23;5.15;;;0.50;;
31386;SDS011;18017;50.124;8.688;2022-11-21T02:02:55;3.50;;;0.45;;
31386;SDS011;18017;50.124;8.688;2022-11-21T02:05:25;5.95;;;0.40;;
31386;SDS011;18017;50.124;8.688;2022-11-21T02:07:54;5.35;;;0.60;;
31386;SDS011;18017;50.124;8.688;2022-11-21T02:10:25;8.20;;;0.97;;
31386;SDS011;18017;50.124;8.688;2022-11-21T02:12:51;4.82;;;0.40;;
31386;SDS011;18017;50.124;8.688;2022-11-21T02:15:20;2.65;;;0.40;;
31386;SDS011;18017;50.124;8.688;2022-11-21T02:17:48;4.90;;;0.50;;
31386;SDS011;18017;50.124;8.688;2022-11-21T02:20:14;5.80;;;0.70;;
31386;SDS011;18017;50.124;8.688;2022-11-21T02:25:38;5.97;;;0.70;;
31386;SDS011;18017;50.124;8.688;2022-11-21T02:28:07;10.35;;;0.70;;
31386;SDS011;18017;50.124;8.688;2022-11-21T02:30:36;9.50;;;0.90;;
31386;SDS011;18017;50.124;8.688;2022-11-21T02:33:03;10.88;;;0.85;;
31386;SDS011;18017;50.124;8.688;2022-11-21T02:35:29;9.98;;;0.90;;
31386;SDS011;18017;50.124;8.688;2022-11-21T02:40:36;10.90;;;0.75;;
31386;SDS011;18017;50.124;8.688;2022-11-21T02:43:13;8.38;;;1.10;;
31386;SDS011;18017;50.124;8.688;2022-11-21T02:48:15;4.97;;;0.47;;
31386;SDS011;18017;50.124;8.688;2022-11-21T02:50:41;13.60;;;1.00;;
31386;SDS011;18017;50.124;8.688;2022-11-21T02:53:10;13.68;;;1.02;;
31386;SDS011;18017;50.124;8.688;2022-11-21T02:55:37;9.20;;;0.85;;
31386;SDS011;18017;50.124;8.688;2022-11-21T02:58:03;15.82;;;1.23;;
31386;SDS011;18017;50.124;8.688;2022-11-21T03:00:29;13.95;;;1.30;;
31386;SDS011;18017;50.124;8.688;2022-11-21T03:02:56;7.18;;;0.93;;
31386;SDS011;18017;50.124;8.688;2022-11-21T03:05:22;9.40;;;0.77;;
31386;SDS011;18017;50.124;8.688;2022-11-21T03:07:48;11.25;;;1.20;;
31386;SDS011;18017;50.124;8.688;2022-11-21T03:10:14;8.45;;;0.93;;
31386;SDS011;18017;50.124;8.688;2022-11-21T03:12:40;9.02;;;0.85;;
31386;SDS011;18017;50.124;8.688;2022-11-21T03:15:07;10.43;;;0.90;;
31386;SDS011;18017;50.124;8.688;2022-11-21T03:17:35;10.00;;;0.85;;
31386;SDS011;18017;50.124;8.688;2022-11-21T03:20:01;6.28;;;0.70;;
31386;SDS011;18017;50.124;8.688;2022-11-21T03:22:28;8.20;;;0.70;;
31386;SDS011;18017;50.124;8.688;2022-11-21T03:24:53;10.40;;;0.93;;
31386;SDS011;18017;50.124;8.688;2022-11-21T03:27:19;10.13;;;0.82;;
31386;SDS011;18017;50.124;8.688;2022-11-21T03:29:44;10.63;;;0.90;;
31386;SDS011;18017;50.124;8.688;2022-11-21T03:32:10;6.35;;;0.77;;
31386;SDS011;18017;50.124;8.688;2022-11-21T03:34:36;7.00;;;0.63;;
31386;SDS011;18017;50.124;8.688;2022-11-21T03:37:01;9.55;;;0.70;;
31386;SDS011;18017;50.124;8.688;2022-11-21T03:39:28;9.57;;;1.35;;
31386;SDS011;18017;50.124;8.688;2022-11-21T03:41:54;3.70;;;0.73;;
31386;SDS011;18017;50.124;8.688;2022-11-21T03:44:19;10.07;;;1.00;;
31386;SDS011;18017;50.124;8.688;2022-11-21T03:46:45;10.13;;;1.10;;
31386;SDS011;18017;50.124;8.688;2022-11-21T03:49:11;8.23;;;0.77;;
31386;SDS011;18017;50.124;8.688;2022-11-21T03:51:38;11.85;;;1.00;;
31386;SDS011;18017;50.124;8.688;2022-11-21T03:54:04;10.77;;;0.98;;
31386;SDS011;18017;50.124;8.688;2022-11-21T03:56:30;12.48;;;0.60;;
31386;SDS011;18017;50.124;8.688;2022-11-21T03:58:56;8.27;;;1.00;;
31386;SDS011;18017;50.124;8.688;2022-11-21T04:01:22;10.68;;;0.70;;
31386;SDS011;18017;50.124;8.688;2022-11-21T04:03:48;8.32;;;0.50;;
31386;SDS011;18017;50.124;8.688;2022-11-21T04:06:15;5.65;;;0.55;;
31386;SDS011;18017;50.124;8.688;2022-11-21T04:08:42;7.72;;;1.10;;
31386;SDS011;18017;50.124;8.688;2022-11-21T04:11:07;6.55;;;0.90;;
31386;SDS011;18017;50.124;8.688;2022-11-21T04:13:33;7.90;;;1.10;;
31386;SDS011;18017;50.124;8.688;2022-11-21T04:15:58;12.65;;;0.80;;
31386;SDS011;18017;50.124;8.688;2022-11-21T04:18:24;9.68;;;0.85;;
31386;SDS011;18017;50.124;8.688;2022-11-21T04:21:00;7.07;;;0.70;;
31386;SDS011;18017;50.124;8.688;2022-11-21T04:23:27;15.57;;;1.15;;
31386;SDS011;18017;50.124;8.688;2022-11-21T04:25:53;6.20;;;1.10;;
31386;SDS011;18017;50.124;8.688;2022-11-21T04:28:19;4.55;;;0.68;;
31386;SDS011;18017;50.124;8.688;2022-11-21T04:30:45;9.10;;;0.90;;
31386;SDS011;18017;50.124;8.688;2022-11-21T04:33:11;7.68;;;0.85;;
31386;SDS011;18017;50.124;8.688;2022-11-21T04:35:38;7.90;;;0.75;;
31386;SDS011;18017;50.124;8.688;2022-11-21T04:38:04;7.18;;;0.73;;
31386;SDS011;18017;50.124;8.688;2022-11-21T04:40:30;7.15;;;0.70;;
31386;SDS011;18017;50.124;8.688;2022-11-21T04:42:55;5.88;;;0.55;;
31386;SDS011;18017;50.124;8.688;2022-11-21T04:45:21;10.05;;;0.80;;
31386;SDS011;18017;50.124;8.688;2022-11-21T04:47:47;9.38;;;1.00;;
31386;SDS011;18017;50.124;8.688;2022-11-21T04:50:14;7.30;;;0.90;;
31386;SDS011;18017;50.124;8.688;2022-11-21T04:52:41;7.03;;;0.47;;
31386;SDS011;18017;50.124;8.688;2022-11-21T04:55:12;7.63;;;0.65;;
31386;SDS011;18017;50.124;8.688;2022-11-21T04:57:38;8.55;;;0.60;;
31386;SDS011;18017;50.124;8.688;2022-11-21T05:00:03;5.72;;;0.73;;
31386;SDS011;18017;50.124;8.688;2022-11-21T05:02:30;9.10;;;0.60;;
31386;SDS011;18017;50.124;8.688;2022-11-21T05:04:56;8.10;;;0.57;;
31386;SDS011;18017;50.124;8.688;2022-11-21T05:07:22;6.32;;;0.73;;
31386;SDS011;18017;50.124;8.688;2022-11-21T05:09:47;4.78;;;0.60;;
31386;SDS011;18017;50.124;8.688;2022-11-21T05:12:13;6.32;;;0.60;;
31386;SDS011;18017;50.124;8.688;2022-11-21T05:14:57;5.60;;;0.45;;
31386;SDS011;18017;50.124;8.688;2022-11-21T05:17:22;5.03;;;0.40;;
31386;SDS011;18017;50.124;8.688;2022-11-21T05:19:48;3.22;;;0.40;;
31386;SDS011;18017;50.124;8.688;2022-11-21T05:22:13;4.32;;;0.40;;
31386;SDS011;18017;50.124;8.688;2022-11-21T05:24:39;7.72;;;0.70;;
31386;SDS011;18017;50.124;8.688;2022-11-21T05:27:04;8.82;;;0.65;;
31386;SDS011;18017;50.124;8.688;2022-11-21T05:29:30;4.50;;;0.40;;
31386;SDS011;18017;50.124;8.688;2022-11-21T05:31:55;3.50;;;0.47;;
31386;SDS011;18017;50.124;8.688;2022-11-21T05:34:21;6.30;;;0.60;;
31386;SDS011;18017;50.124;8.688;2022-11-21T05:36:47;4.53;;;0.68;;
31386;SDS011;18017;50.124;8.688;2022-11-21T05:39:13;2.88;;;0.30;;
31386;SDS011;18017;50.124;8.688;2022-11-21T05:41:39;4.93;;;0.43;;
31386;SDS011;18017;50.124;8.688;2022-11-21T05:44:05;8.68;;;0.80;;
31386;SDS011;18017;50.124;8.688;2022-11-21T05:46:31;5.30;;;0.63;;
31386;SDS011;18017;50.124;8.688;2022-11-21T05:48:56;11.18;;;0.40;;
31386;SDS011;18017;50.124;8.688;2022-11-21T05:51:22;5.78;;;0.47;;
31386;SDS011;18017;50.124;8.688;2022-11-21T05:53:47;5.80;;;0.40;;
31386;SDS011;18017;50.124;8.688;2022-11-21T05:56:14;2.03;;;0.40;;
31386;SDS011;18017;50.124;8.688;2022-11-21T05:58:41;3.40;;;0.38;;
31386;SDS011;18017;50.124;8.688;2022-11-21T06:01:08;5.55;;;0.50;;
31386;SDS011;18017;50.124;8.688;2022-11-21T06:03:36;4.82;;;0.63;;
31386;SDS011;18017;50.124;8.688;2022-11-21T06:06:07;6.75;;;0.43;;
31386;SDS011;18017;50.124;8.688;2022-11-21T06:08:35;2.70;;;0.30;;
31386;SDS011;18017;50.124;8.688;2022-11-21T06:11:02;5.88;;;0.40;;
31386;SDS011;18017;50.124;8.688;2022-11-21T06:13:29;4.93;;;0.60;;
31386;SDS011;18017;50.124;8.688;2022-11-21T06:18:24;2.25;;;0.40;;
31386;SDS011;18017;50.124;8.688;2022-11-21T06:20:49;5.35;;;0.60;;
31386;SDS011;18017;50.124;8.688;2022-11-21T06:23:15;2.65;;;0.45;;
31386;SDS011;18017;50.124;8.688;2022-11-21T06:25:41;5.15;;;0.52;;
31386;SDS011;18017;50.124;8.688;2022-11-21T06:28:08;3.35;;;0.50;;
31386;SDS011;18017;50.124;8.688;2022-11-21T06:30:34;8.48;;;0.65;;
31386;SDS011;18017;50.124;8.688;2022-11-21T06:33:02;5.43;;;0.50;;
31386;SDS011;18017;50.124;8.688;2022-11-21T06:35:29;5.05;;;0.73;;
31386;SDS011;18017;50.124;8.688;2022-11-21T06:37:55;2.58;;;0.30;;
31386;SDS011;18017;50.124;8.688;2022-11-21T06:40:22;4.85;;;0.50;;
31386;SDS011;18017;50.124;8.688;2022-11-21T06:42:47;3.05;;;0.30;;
31386;SDS011;18017;50.124;8.688;2022-11-21T06:45:13;2.22;;;0.40;;
31386;SDS011;18017;50.124;8.688;2022-11-21T06:47:39;2.92;;;0.55;;
31386;SDS011;18017;50.124;8.688;2022-11-21T06:50:04;4.13;;;0.45;;
31386;SDS011;18017;50.124;8.688;2022-11-21T06:52:33;4.15;;;0.80;;
31386;SDS011;18017;50.124;8.688;2022-11-21T06:54:59;6.80;;;0.50;;
31386;SDS011;18017;50.124;8.688;2022-11-21T06:57:25;6.78;;;0.60;;
31386;SDS011;18017;50.124;8.688;2022-11-21T06:59:50;5.57;;;0.60;;
31386;SDS011;18017;50.124;8.688;2022-11-21T07:02:16;9.73;;;0.65;;
31386;SDS011;18017;50.124;8.688;2022-11-21T07:04:42;2.58;;;0.47;;
31386;SDS011;18017;50.124;8.688;2022-11-21T07:07:07;4.03;;;0.68;;
31386;SDS011;18017;50.124;8.688;2022-11-21T07:09:33;3.28;;;0.70;;
31386;SDS011;18017;50.124;8.688;2022-11-21T07:11:59;5.82;;;0.40;;
31386;SDS011;18017;50.124;8.688;2022-11-21T07:14:46;1.58;;;0.47;;
31386;SDS011;18017;50.124;8.688;2022-11-21T07:17:12;8.27;;;0.60;;
31386;SDS011;18017;50.124;8.688;2022-11-21T07:19:38;5.55;;;0.43;;
31386;SDS011;18017;50.124;8.688;2022-11-21T07:22:03;4.95;;;0.47;;
31386;SDS011;18017;50.124;8.688;2022-11-21T07:24:29;17.35;;;1.00;;
31386;SDS011;18017;50.124;8.688;2022-11-21T07:26:55;6.40;;;0.60;;
31386;SDS011;18017;50.124;8.688;2022-11-21T07:29:20;6.68;;;0.52;;
31386;SDS011;18017;50.124;8.688;2022-11-21T07:31:46;3.53;;;0.50;;
31386;SDS011;18017;50.124;8.688;2022-11-21T07:34:12;7.25;;;0.73;;
31386;SDS011;18017;50.124;8.688;2022-11-21T07:36:37;3.03;;;0.63;;
31386;SDS011;18017;50.124;8.688;2022-11-21T07:39:03;3.75;;;0.50;;
31386;SDS011;18017;50.124;8.688;2022-11-21T07:41:28;3.83;;;0.63;;
31386;SDS011;18017;50.124;8.688;2022-11-21T07:43:54;9.38;;;1.77;;
31386;SDS011;18017;50.124;8.688;2022-11-21T07:46:19;1.95;;;0.40;;
31386;SDS011;18017;50.124;8.688;2022-11-21T07:48:45;4.93;;;0.65;;
31386;SDS011;18017;50.124;8.688;2022-11-21T07:51:10;4.45;;;0.70;;
31386;SDS011;18017;50.124;8.688;2022-11-21T07:53:36;6.15;;;0.82;;
31386;SDS011;18017;50.124;8.688;2022-11-21T07:56:02;5.20;;;0.80;;
31386;SDS011;18017;50.124;8.688;2022-11-21T07:58:28;11.70;;;1.45;;
31386;SDS011;18017;50.124;8.688;2022-11-21T08:00:54;3.22;;;0.57;;
31386;SDS011;18017;50.124;8.688;2022-11-21T08:03:20;5.55;;;0.65;;
31386;SDS011;18017;50.124;8.688;2022-11-21T08:05:46;5.65;;;0.68;;
31386;SDS011;18017;50.124;8.688;2022-11-21T08:08:12;5.47;;;0.73;;
31386;SDS011;18017;50.124;8.688;2022-11-21T08:10:40;8.75;;;1.17;;
31386;SDS011;18017;50.124;8.688;2022-11-21T08:13:07;4.28;;;0.57;;
31386;SDS011;18017;50.124;8.688;2022-11-21T08:15:32;6.03;;;0.75;;
31386;SDS011;18017;50.124;8.688;2022-11-21T08:18:05;6.22;;;0.60;;
31386;SDS011;18017;50.124;8.688;2022-11-21T08:20:31;3.50;;;0.60;;
31386;SDS011;18017;50.124;8.688;2022-11-21T08:22:57;6.20;;;1.10;;
31386;SDS011;18017;50.124;8.688;2022-11-21T08:25:22;7.47;;;0.93;;
31386;SDS011;18017;50.124;8.688;2022-11-21T08:27:48;9.02;;;0.82;;
31386;SDS011;18017;50.124;8.688;2022-11-21T08:30:13;7.95;;;0.90;;
31386;SDS011;18017;50.124;8.688;2022-11-21T08:32:39;5.68;;;0.65;;
31386;SDS011;18017;50.124;8.688;2022-11-21T08:35:05;2.72;;;0.50;;
31386;SDS011;18017;50.124;8.688;2022-11-21T08:37:31;4.22;;;0.63;;
31386;SDS011;18017;50.124;8.688;2022-11-21T08:39:57;2.22;;;0.30;;
31386;SDS011;18017;50.124;8.688;2022-11-21T08:42:23;7.22;;;0.50;;
31386;SDS011;18017;50.124;8.688;2022-11-21T08:44:49;2.88;;;0.47;;
31386;SDS011;18017;50.124;8.688;2022-11-21T08:47:15;3.00;;;0.45;;
31386;SDS011;18017;50.124;8.688;2022-11-21T08:49:40;6.82;;;0.35;;
31386;SDS011;18017;50.124;8.688;2022-11-21T08:52:06;2.13;;;0.60;;
31386;SDS011;18017;50.124;8.688;2022-11-21T08:54:32;2.40;;;0.60;;
31386;SDS011;18017;50.124;8.688;2022-11-21T08:56:57;3.35;;;0.30;;
31386;SDS011;18017;50.124;8.688;2022-11-21T08:59:23;7.25;;;0.70;;
31386;SDS011;18017;50.124;8.688;2022-11-21T09:01:48;2.10;;;0.43;;
31386;SDS011;18017;50.124;8.688;2022-11-21T09:04:14;4.57;;;0.50;;
31386;SDS011;18017;50.124;8.688;2022-11-21T09:06:39;7.10;;;0.50;;
31386;SDS011;18017;50.124;8.688;2022-11-21T09:09:05;5.88;;;0.70;;
31386;SDS011;18017;50.124;8.688;2022-11-21T09:11:31;6.20;;;0.68;;
31386;SDS011;18017;50.124;8.688;2022-11-21T09:13:57;3.70;;;0.40;;
31386;SDS011;18017;50.124;8.688;2022-11-21T09:16:42;6.65;;;0.70;;
31386;SDS011;18017;50.124;8.688;2022-11-21T09:19:26;4.20;;;0.57;;
31386;SDS011;18017;50.124;8.688;2022-11-21T09:21:52;7.38;;;0.77;;
31386;SDS011;18017;50.124;8.688;2022-11-21T09:24:18;4.07;;;0.52;;
31386;SDS011;18017;50.124;8.688;2022-11-21T09:26:43;2.55;;;0.57;;
31386;SDS011;18017;50.124;8.688;2022-11-21T09:29:09;3.00;;;0.47;;
31386;SDS011;18017;50.124;8.688;2022-11-21T09:31:38;7.53;;;0.82;;
31386;SDS011;18017;50.124;8.688;2022-11-21T09:34:04;6.63;;;0.73;;
31386;SDS011;18017;50.124;8.688;2022-11-21T09:36:30;6.18;;;0.70;;
31386;SDS011;18017;50.124;8.688;2022-11-21T09:38:55;3.50;;;0.57;;
31386;SDS011;18017;50.124;8.688;2022-11-21T09:47:29;2.95;;;0.85;;
31386;SDS011;18017;50.124;8.688;2022-11-21T09:49:59;4.80;;;0.52;;
31386;SDS011;18017;50.124;8.688;2022-11-21T09:52:40;1.58;;;0.45;;
31386;SDS011;18017;50.124;8.688;2022-11-21T09:56:18;4.20;;;0.50;;
31386;SDS011;18017;50.124;8.688;2022-11-21T10:01:02;2.53;;;0.40;;
31386;SDS011;18017;50.124;8.688;2022-11-21T10:03:28;3.75;;;0.50;;
31386;SDS011;18017;50.124;8.688;2022-11-21T10:06:03;4.40;;;0.47;;
31386;SDS011;18017;50.124;8.688;2022-11-21T10:11:19;2.45;;;0.40;;
31386;SDS011;18017;50.124;8.688;2022-11-21T10:14:11;2.17;;;0.35;;
31386;SDS011;18017;50.124;8.688;2022-11-21T10:25:13;6.72;;;0.60;;
31386;SDS011;18017;50.124;8.688;2022-11-21T10:27:49;1.33;;;0.30;;
31386;SDS011;18017;50.124;8.688;2022-11-21T10:30:22;5.38;;;0.52;;
31386;SDS011;18017;50.124;8.688;2022-11-21T10:32:57;4.15;;;0.40;;
31386;SDS011;18017;50.124;8.688;2022-11-21T10:35:34;2.13;;;0.50;;
31386;SDS011;18017;50.124;8.688;2022-11-21T10:40:52;2.40;;;0.50;;
31386;SDS011;18017;50.124;8.688;2022-11-21T10:43:29;3.20;;;0.45;;
31386;SDS011;18017;50.124;8.688;2022-11-21T10:46:25;5.45;;;0.50;;
31386;SDS011;18017;50.124;8.688;2022-11-21T10:48:58;1.90;;;0.38;;
31386;SDS011;18017;50.124;8.688;2022-11-21T10:51:36;1.52;;;0.22;;
31386;SDS011;18017;50.124;8.688;2022-11-21T10:54:12;3.63;;;0.60;;
31386;SDS011;18017;50.124;8.688;2022-11-21T10:57:06;2.83;;;0.40;;
31386;SDS011;18017;50.124;8.688;2022-11-21T10:59:41;2.15;;;0.50;;
31386;SDS011;18017;50.124;8.688;2022-11-21T11:02:40;5.03;;;0.57;;
31386;SDS011;18017;50.124;8.688;2022-11-21T11:07:40;2.22;;;0.22;;
31386;SDS011;18017;50.124;8.688;2022-11-21T11:10:22;4.30;;;0.40;;
31386;SDS011;18017;50.124;8.688;2022-11-21T11:12:48;4.47;;;0.50;;
31386;SDS011;18017;50.124;8.688;2022-11-21T11:15:33;2.58;;;0.40;;
31386;SDS011;18017;50.124;8.688;2022-11-21T11:18:00;10.90;;;0.70;;
31386;SDS011;18017;50.124;8.688;2022-11-21T11:20:43;3.55;;;0.60;;
31386;SDS011;18017;50.124;8.688;2022-11-21T11:25:47;5.18;;;0.75;;
31386;SDS011;18017;50.124;8.688;2022-11-21T11:28:17;5.55;;;0.73;;
31386;SDS011;18017;50.124;8.688;2022-11-21T11:30:44;3.88;;;0.50;;
31386;SDS011;18017;50.124;8.688;2022-11-21T11:35:55;3.70;;;0.30;;
31386;SDS011;18017;50.124;8.688;2022-11-21T11:38:49;0.80;;;0.20;;
31386;SDS011;18017;50.124;8.688;2022-11-21T11:44:30;0.73;;;0.20;;
31386;SDS011;18017;50.124;8.688;2022-11-21T11:47:24;3.88;;;0.50;;
31386;SDS011;18017;50.124;8.688;2022-11-21T11:50:01;3.72;;;0.30;;
31386;SDS011;18017;50.124;8.688;2022-11-21T11:55:36;3.60;;;0.40;;
31386;SDS011;18017;50.124;8.688;2022-11-21T11:58:57;2.83;;;0.32;;
31386;SDS011;18017;50.124;8.688;2022-11-21T12:01:02;3.70;;;0.30;;
31386;SDS011;18017;50.124;8.688;2022-11-21T12:03:40;2.08;;;0.40;;
31386;SDS011;18017;50.124;8.688;2022-11-21T12:09:26;2.92;;;0.43;;
31386;SDS011;18017;50.124;8.688;2022-11-21T12:12:04;3.80;;;0.40;;
31386;SDS011;18017;50.124;8.688;2022-11-21T12:23:10;4.32;;;0.50;;
31386;SDS011;18017;50.124;8.688;2022-11-21T12:25:38;2.92;;;0.38;;
31386;SDS011;18017;50.124;8.688;2022-11-21T12:28:19;3.08;;;0.50;;
31386;SDS011;18017;50.124;8.688;2022-11-21T12:33:41;1.33;;;0.30;;
31386;SDS011;18017;50.124;8.688;2022-11-21T12:36:23;2.05;;;0.40;;
31386;SDS011;18017;50.124;8.688;2022-11-21T12:45:47;3.95;;;0.50;;
31386;SDS011;18017;50.124;8.688;2022-11-21T12:54:15;1.95;;;0.45;;
31386;SDS011;18017;50.124;8.688;2022-11-21T12:59:24;2.58;;;0.40;;
31386;SDS011;18017;50.124;8.688;2022-11-21T13:01:59;5.20;;;0.52;;
31386;SDS011;18017;50.124;8.688;2022-11-21T13:04:37;1.90;;;0.38;;
31386;SDS011;18017;50.124;8.688;2022-11-21T13:07:05;4.57;;;0.60;;
31386;SDS011;18017;50.124;8.688;2022-11-21T13:09:32;8.82;;;0.50;;
31386;SDS011;18017;50.124;8.688;2022-11-21T13:14:45;3.33;;;0.40;;
31386;SDS011;18017;50.124;8.688;2022-11-21T13:20:04;4.32;;;0.55;;
31386;SDS011;18017;50.124;8.688;2022-11-21T13:22:52;1.47;;;0.20;;
31386;SDS011;18017;50.124;8.688;2022-11-21T13:30:47;3.28;;;0.50;;
31386;SDS011;18017;50.124;8.688;2022-11-21T13:35:59;2.70;;;0.50;;
31386;SDS011;18017;50.124;8.688;2022-11-21T13:38:26;4.78;;;0.40;;
31386;SDS011;18017;50.124;8.688;2022-11-21T13:40:52;3.88;;;0.50;;
31386;SDS011;18017;50.124;8.688;2022-11-21T13:43:36;8.65;;;0.40;;
31386;SDS011;18017;50.124;8.688;2022-11-21T13:46:02;2.35;;;0.45;;
31386;SDS011;18017;50.124;8.688;2022-11-21T13:51:21;4.88;;;0.60;;
31386;SDS011;18017;50.124;8.688;2022-11-21T14:07:32;5.50;;;0.60;;
31386;SDS011;18017;50.124;8.688;2022-11-21T14:10:00;4.60;;;0.40;;
31386;SDS011;18017;50.124;8.688;2022-11-21T14:12:29;2.70;;;0.50;;
31386;SDS011;18017;50.124;8.688;2022-11-21T14:20:14;6.25;;;0.60;;
31386;SDS011;18017;50.124;8.688;2022-11-21T14:22:54;2.85;;;0.80;;
31386;SDS011;18017;50.124;8.688;2022-11-21T14:25:22;7.65;;;0.65;;
31386;SDS011;18017;50.124;8.688;2022-11-21T14:28:08;5.43;;;0.45;;
31386;SDS011;18017;50.124;8.688;2022-11-21T14:30:37;3.97;;;0.55;;
31386;SDS011;18017;50.124;8.688;2022-11-21T14:46:25;5.45;;;0.60;;
31386;SDS011;18017;50.124;8.688;2022-11-21T14:48:53;9.43;;;0.82;;
31386;SDS011;18017;50.124;8.688;2022-11-21T14:51:21;5.78;;;0.80;;
31386;SDS011;18017;50.124;8.688;2022-11-21T14:53:48;8.48;;;1.15;;
31386;SDS011;18017;50.124;8.688;2022-11-21T14:56:27;7.30;;;0.93;;
31386;SDS011;18017;50.124;8.688;2022-11-21T14:58:55;8.20;;;1.17;;
31386;SDS011;18017;50.124;8.688;2022-11-21T15:01:27;10.23;;;1.08;;
31386;SDS011;18017;50.124;8.688;2022-11-21T15:03:58;9.52;;;0.80;;
31386;SDS011;18017;50.124;8.688;2022-11-21T15:06:28;7.07;;;0.68;;
31386;SDS011;18017;50.124;8.688;2022-11-21T15:08:57;5.25;;;0.50;;
31386;SDS011;18017;50.124;8.688;2022-11-21T15:11:27;7.13;;;0.63;;
31386;SDS011;18017;50.124;8.688;2022-11-21T15:13:58;4.65;;;0.70;;
31386;SDS011;18017;50.124;8.688;2022-11-21T15:16:28;3.42;;;0.50;;
31386;SDS011;18017;50.124;8.688;2022-11-21T15:18:54;7.75;;;1.02;;
31386;SDS011;18017;50.124;8.688;2022-11-21T15:21:20;8.30;;;0.95;;
31386;SDS011;18017;50.124;8.688;2022-11-21T15:23:46;6.13;;;1.25;;
31386;SDS011;18017;50.124;8.688;2022-11-21T15:26:28;5.90;;;1.40;;
31386;SDS011;18017;50.124;8.688;2022-11-21T15:28:58;10.82;;;1.52;;
31386;SDS011;18017;50.124;8.688;2022-11-21T15:31:24;8.35;;;1.58;;
31386;SDS011;18017;50.124;8.688;2022-11-21T15:34:00;6.90;;;0.90;;
31386;SDS011;18017;50.124;8.688;2022-11-21T15:36:28;8.63;;;0.88;;
31386;SDS011;18017;50.124;8.688;2022-11-21T15:38:55;4.30;;;1.02;;
31386;SDS011;18017;50.124;8.688;2022-11-21T15:41:27;7.90;;;1.10;;
31386;SDS011;18017;50.124;8.688;2022-11-21T15:46:27;6.65;;;0.80;;
31386;SDS011;18017;50.124;8.688;2022-11-21T15:51:24;10.82;;;1.30;;
31386;SDS011;18017;50.124;8.688;2022-11-21T15:53:51;7.10;;;1.00;;
31386;SDS011;18017;50.124;8.688;2022-11-21T15:56:18;6.82;;;0.70;;
31386;SDS011;18017;50.124;8.688;2022-11-21T15:58:44;8.95;;;1.02;;
31386;SDS011;18017;50.124;8.688;2022-11-21T16:01:21;10.70;;;0.98;;
31386;SDS011;18017;50.124;8.688;2022-11-21T16:03:48;7.97;;;1.10;;
31386;SDS011;18017;50.124;8.688;2022-11-21T16:06:15;15.40;;;1.85;;
31386;SDS011;18017;50.124;8.688;2022-11-21T16:08:41;10.13;;;1.52;;
31386;SDS011;18017;50.124;8.688;2022-11-21T16:11:13;8.48;;;1.30;;
31386;SDS011;18017;50.124;8.688;2022-11-21T16:14:01;5.78;;;1.35;;
31386;SDS011;18017;50.124;8.688;2022-11-21T16:16:32;12.38;;;1.90;;
31386;SDS011;18017;50.124;8.688;2022-11-21T16:19:01;15.43;;;1.58;;
31386;SDS011;18017;50.124;8.688;2022-11-21T16:21:27;8.88;;;1.27;;
31386;SDS011;18017;50.124;8.688;2022-11-21T16:23:53;14.68;;;2.17;;
31386;SDS011;18017;50.124;8.688;2022-11-21T16:26:19;6.65;;;1.20;;
31386;SDS011;18017;50.124;8.688;2022-11-21T16:28:46;14.30;;;1.80;;
31386;SDS011;18017;50.124;8.688;2022-11-21T16:31:18;11.82;;;1.52;;
31386;SDS011;18017;50.124;8.688;2022-11-21T16:33:45;10.85;;;1.30;;
31386;SDS011;18017;50.124;8.688;2022-11-21T16:36:11;10.15;;;1.50;;
31386;SDS011;18017;50.124;8.688;2022-11-21T16:38:37;16.13;;;1.98;;
31386;SDS011;18017;50.124;8.688;2022-11-21T16:41:06;9.88;;;1.85;;
31386;SDS011;18017;50.124;8.688;2022-11-21T16:43:32;10.10;;;1.50;;
31386;SDS011;18017;50.124;8.688;2022-11-21T16:46:07;11.93;;;1.60;;
31386;SDS011;18017;50.124;8.688;2022-11-21T16:48:33;9.82;;;1.65;;
31386;SDS011;18017;50.124;8.688;2022-11-21T16:51:12;9.40;;;1.90;;
31386;SDS011;18017;50.124;8.688;2022-11-21T16:53:38;8.77;;;1.80;;
31386;SDS011;18017;50.124;8.688;2022-11-21T16:56:05;6.72;;;1.20;;
31386;SDS011;18017;50.124;8.688;2022-11-21T16:58:31;9.30;;;1.92;;
31386;SDS011;18017;50.124;8.688;2022-11-21T17:00:56;7.93;;;1.73;;
31386;SDS011;18017;50.124;8.688;2022-11-21T17:03:22;4.95;;;1.58;;
31386;SDS011;18017;50.124;8.688;2022-11-21T17:05:57;9.82;;;1.50;;
31386;SDS011;18017;50.124;8.688;2022-11-21T17:08:24;5.88;;;1.73;;